Observations for NEWCASTLE, United Kingdom (EGNT)

EGNT 130920Z 14008KT 110V190 9999 SCT044 05/M01 Q1019   
EGNT 130850Z 15007KT 080V190 9999 SCT044 05/M01 Q1019   
EGNT 130820Z 15007KT 100V220 9999 BKN043 05/M01 Q1018   
EGNT 130750Z 14007KT 090V180 9999 BKN043 05/M01 Q1018   
EGNT 130720Z 14007KT 080V190 9999 BKN040 05/M01 Q1018   
EGNT 130650Z 15007KT 100V200 9999 BKN040 05/M01 Q1018   
EGNT 130620Z 15007KT 110V210 9999 BKN038 05/M01 Q1018   
EGNT 130550Z 14009KT 090V180 9999 BKN032 05/M01 Q1018   
EGNT 130520Z 13011KT 100V170 9999 BKN032 05/M01 Q1017   
EGNT 130450Z 13010KT 080V160 9999 BKN040 05/M01 Q1017   
EGNT 130420Z 13009KT 090V170 9999 BKN040 04/M01 Q1018   
EGNT 130320Z 13008KT 100V170 9999 BKN040 04/01 Q1018
EGNT 130250Z 13007KT 100V170 9999 BKN040 04/01 Q1018
EGNT 130220Z 13007KT 080V180 9999 BKN040 04/01 Q1018
EGNT 130120Z 15006KT 090V190 9999 BKN035 04/M01 Q1019   
EGNT 130050Z 16005KT 120V200 9999 BKN035 04/M01 Q1019   
EGNT 130020Z 16006KT 110V190 9999 BKN035 04/M02 Q1019   
EGNT 122350Z 14006KT 060V200 9999 SCT035 04/M02 Q1019   
EGNT 122320Z 14007KT 100V180 9999 SCT035 03/M02 Q1019   
EGNT 122250Z 14007KT 090V180 CAVOK 03/M02 Q1019 
EGNT 122220Z 14006KT 090V180 CAVOK 04/M03 Q1018 
EGNT 122150Z 15007KT 100V200 CAVOK 04/M03 Q1019 
EGNT 122120Z 14007KT 100V190 CAVOK 03/M03 Q1019 
EGNT 122050Z 14008KT 100V180 CAVOK 04/M02 Q1019 
EGNT 122020Z 14007KT 100V170 CAVOK 03/M01 Q1020 
EGNT 121950Z 13006KT 090V170 CAVOK 03/M01 Q1020 
EGNT 121920Z 13007KT 090V170 CAVOK 04/M01 Q1020 
EGNT 121850Z 13008KT 100V180 CAVOK 04/M01 Q1020 
EGNT 121820Z 13008KT 080V190 CAVOK 04/M01 Q1020 
EGNT 121750Z 14007KT 090V180 9999 FEW046 04/M00 Q1020   
EGNT 121720Z 13006KT 090V180 9999 FEW046 05/00 Q1020
EGNT 121650Z 15006KT 110V190 9999 SCT046 05/M00 Q1020   
EGNT 121620Z 14007KT 090V190 9999 SCT046 06/00 Q1020
EGNT 121550Z 15007KT 080V190 9999 BKN044 06/00 Q1020
EGNT 121520Z 14007KT 090V180 9999 SCT044 06/01 Q1020
EGNT 121450Z 15006KT 100V190 9999 SCT044 06/01 Q1020
EGNT 121420Z 15006KT 050V190 9999 SCT042 07/01 Q1020
EGNT 121350Z 15006KT 090V190 9999 FEW045 07/01 Q1020
EGNT 121320Z 15006KT 090V210 9999 FEW045 07/01 Q1020
EGNT 121250Z 16006KT 100V190 9999 SCT033 07/02 Q1021
EGNT 121220Z 15006KT 100V200 9999 BKN033 07/02 Q1021
EGNT 121150Z 16006KT 120V200 9999 BKN040 06/02 Q1021
EGNT 121120Z 15005KT 090V200 9999 FEW010 BKN037 07/02 Q1022 
EGNT 121050Z 14006KT 080V200 9999 FEW010 BKN037 06/02 Q1022 
EGNT 121020Z 14005KT 090V200 9999 FEW010 BKN040 06/03 Q1022 
EGNT 120950Z 16005KT 090V190 9999 FEW014 BKN040 06/03 Q1022 
EGNT 120920Z 16005KT 120V190 9999 FEW014 BKN033 06/03 Q1022 
EGNT 120850Z 15004KT 100V200 9000 SCT014 BKN033 05/03 Q1022